Time;durP1;ratioP1;P1;durP2;ratioP2;P2;SDS_P1;SDS_P2;PMS_P1;PMS_P2;Temp;Humidity;BMP_temperature;BMP_pressure;BME280_temperature;BME280_humidity;BME280_pressure;Samples;Min_cycle;Max_cycle;Signal;HPM_P1;HPM_P2
2022/05/14 00:00:45;;;;;;;;;;;;;;;21.52;47.04;101880.84;7280806;19;153137;-60
2022/05/14 00:03:12;;;;;;;;;;;;;;;21.50;47.13;101874.66;7281372;19;151894;-58
2022/05/14 00:05:38;;;;;;;;;;;;;;;21.49;47.62;101875.78;7284466;19;152802;-60
2022/05/14 00:08:05;;;;;;;;;;;;;;;21.49;47.47;101881.41;7280978;19;153869;-58
2022/05/14 00:10:32;;;;;;;;;;;;;;;21.50;47.61;101879.44;7284474;19;151823;-58
2022/05/14 00:15:40;;;;;;;;;;;;;;;21.47;48.16;101880.88;7284694;19;152479;-58
2022/05/14 00:18:08;;;;;;;;;;;;;;;21.46;47.75;101886.78;7283457;19;153866;-59
2022/05/14 00:20:37;;;;;;;;;;;;;;;21.47;48.43;101880.03;7282005;19;153523;-58
2022/05/14 00:23:04;;;;;;;;;;;;;;;21.45;48.36;101874.69;7280944;19;151783;-59
2022/05/14 00:25:31;;;;;;;;;;;;;;;21.47;48.46;101885.66;7281332;19;153466;-58
2022/05/14 00:27:58;;;;;;;;;;;;;;;21.45;48.89;101877.50;7280691;19;153389;-58
2022/05/14 00:30:26;;;;;;;;;;;;;;;21.44;48.70;101878.63;7281086;19;152362;-59
2022/05/14 00:32:54;;;;;;;;;;;;;;;21.45;48.48;101885.09;7285504;19;153840;-59
2022/05/14 00:35:20;;;;;;;;;;;;;;;21.44;48.59;101877.81;7296524;19;152104;-59
2022/05/14 00:37:47;;;;;;;;;;;;;;;21.44;48.97;101883.44;7289621;19;152654;-59
2022/05/14 00:40:24;;;;;;;;;;;;;;;21.41;48.63;101876.41;7285556;19;154284;-59
2022/05/14 00:42:52;;;;;;;;;;;;;;;21.42;49.01;101875.28;7288217;19;152003;-62
2022/05/14 00:45:19;;;;;;;;;;;;;;;21.41;48.96;101876.41;7287046;19;152683;-59
2022/05/14 00:47:49;;;;;;;;;;;;;;;21.42;49.33;101872.47;7289619;19;153489;-60
2022/05/14 00:50:26;;;;;;;;;;;;;;;21.42;49.28;101877.25;7286774;19;152401;-59
2022/05/14 00:52:58;;;;;;;;;;;;;;;21.42;49.24;101880.06;7289188;19;153570;-60
2022/05/14 00:55:25;;;;;;;;;;;;;;;21.40;48.84;101882.31;7292036;19;154554;-62
2022/05/14 00:57:52;;;;;;;;;;;;;;;21.38;49.04;101888.25;7287471;19;152679;-59
2022/05/14 01:00:21;;;;;;;;;;;;;;;21.39;49.15;101889.09;7283904;19;153763;-59
2022/05/14 01:02:48;;;;;;;;;;;;;;;21.38;48.98;101882.63;7289294;19;152236;-58
2022/05/14 01:05:17;;;;;;;;;;;;;;;21.36;49.18;101887.69;7286639;19;153170;-59
2022/05/14 01:07:44;;;;;;;;;;;;;;;21.35;48.89;101888.81;7286603;19;153281;-58
2022/05/14 01:10:12;;;;;;;;;;;;;;;21.35;49.00;101902.03;7285787;19;151632;-59
2022/05/14 01:12:43;;;;;;;;;;;;;;;21.33;49.08;101898.66;7287150;19;152881;-60
2022/05/14 01:15:15;;;;;;;;;;;;;;;21.32;48.79;101899.78;7287739;19;153389;-60
2022/05/14 01:17:42;;;;;;;;;;;;;;;21.31;49.11;101896.13;7294716;19;152096;-59
2022/05/14 01:20:10;;;;;;;;;;;;;;;21.30;49.11;101897.28;7284133;19;154625;-59
2022/05/14 01:22:46;;;;;;;;;;;;;;;21.30;48.72;101900.09;7288169;19;151812;-59
2022/05/14 01:27:53;;;;;;;;;;;;;;;21.30;48.83;101900.91;7286511;19;152471;-58
2022/05/14 01:30:20;;;;;;;;;;;;;;;21.31;49.14;101901.75;7287007;19;151497;-59
2022/05/14 01:32:47;;;;;;;;;;;;;;;21.32;48.82;101899.78;7285531;19;151956;-60
2022/05/14 01:35:15;;;;;;;;;;;;;;;21.31;49.11;101907.38;7284044;19;153661;-59
2022/05/14 01:37:43;;;;;;;;;;;;;;;21.32;49.15;101899.78;7287771;19;152828;-59
2022/05/14 01:40:10;;;;;;;;;;;;;;;21.30;48.95;101905.72;7292767;19;152534;-58
2022/05/14 01:42:37;;;;;;;;;;;;;;;21.29;49.01;101906.84;7286747;19;151882;-58
2022/05/14 01:45:04;;;;;;;;;;;;;;;21.27;49.47;101900.66;7283022;19;153209;-59
2022/05/14 01:47:34;;;;;;;;;;;;;;;21.26;49.66;101905.44;7285387;19;153238;-58
2022/05/14 01:50:01;;;;;;;;;;;;;;;21.26;49.85;101902.63;7285864;19;152061;-59
2022/05/14 01:52:27;;;;;;;;;;;;;;;21.24;49.50;101904.91;7288128;19;152786;-59
2022/05/14 01:54:54;;;;;;;;;;;;;;;21.24;49.46;101904.91;7283067;19;154145;-59
2022/05/14 01:57:21;;;;;;;;;;;;;;;21.24;49.71;101906.88;7287482;19;152368;-58
2022/05/14 01:59:48;;;;;;;;;;;;;;;21.24;49.76;101899.28;7288028;19;153310;-59
2022/05/14 02:02:15;;;;;;;;;;;;;;;21.24;50.26;101895.63;7293200;19;155003;-59
2022/05/14 02:04:42;;;;;;;;;;;;;;;21.22;49.65;101897.88;7286659;19;153442;-59
2022/05/14 02:07:09;;;;;;;;;;;;;;;21.20;49.83;101897.34;7286793;19;153936;-58
2022/05/14 02:09:36;;;;;;;;;;;;;;;21.21;50.08;101899.03;7286395;19;151924;-59
2022/05/14 02:12:03;;;;;;;;;;;;;;;21.20;49.69;101897.34;7287851;19;152834;-59
2022/05/14 02:14:30;;;;;;;;;;;;;;;21.19;49.74;101898.47;7284374;19;153253;-58
2022/05/14 02:16:57;;;;;;;;;;;;;;;21.18;50.08;101889.19;7286928;19;151743;-59
2022/05/14 02:19:25;;;;;;;;;;;;;;;21.17;50.15;101887.50;7284926;19;153475;-59
2022/05/14 02:21:51;;;;;;;;;;;;;;;21.16;49.87;101891.47;7283782;19;153485;-59
2022/05/14 02:24:18;;;;;;;;;;;;;;;21.17;50.02;101895.94;7291005;19;152008;-59
2022/05/14 02:26:45;;;;;;;;;;;;;;;21.17;50.06;101903.53;7285292;19;153919;-58
2022/05/14 02:29:12;;;;;;;;;;;;;;;21.17;50.08;101893.13;7286915;19;152414;-59
2022/05/14 02:31:39;;;;;;;;;;;;;;;21.17;50.03;101895.94;7285897;19;152693;-58
2022/05/14 02:34:06;;;;;;;;;;;;;;;21.16;49.69;101885.84;7284687;19;154190;-58
2022/05/14 02:36:31;;;;;;;;;;;;;;;21.13;49.77;101888.38;7284075;19;152320;-58
2022/05/14 02:38:58;;;;;;;;;;;;;;;21.12;49.65;101881.88;7287195;19;153270;-58
2022/05/14 02:41:25;;;;;;;;;;;;;;;21.13;49.76;101880.78;7283646;19;154040;-59
2022/05/14 02:43:53;;;;;;;;;;;;;;;21.13;49.81;101882.75;7285983;19;152050;-60
2022/05/14 02:46:20;;;;;;;;;;;;;;;21.10;49.84;101872.91;7291460;19;153127;-59
2022/05/14 02:48:47;;;;;;;;;;;;;;;21.12;49.89;101869.84;7282790;19;151820;-59
2022/05/14 02:51:14;;;;;;;;;;;;;;;21.09;50.10;101868.41;7283618;19;154625;-59
2022/05/14 02:53:41;;;;;;;;;;;;;;;21.10;50.03;101881.34;7284873;19;154087;-59
2022/05/14 02:56:08;;;;;;;;;;;;;;;21.09;50.33;101882.47;7279865;19;151782;-59
2022/05/14 02:59:07;;;;;;;;;;;;;;;21.08;50.54;101877.97;7286744;19;153820;-59
2022/05/14 03:01:21;;;;;;;;;;;;;;;21.08;50.17;101880.78;7283195;19;153906;-59
2022/05/14 03:03:48;;;;;;;;;;;;;;;21.07;50.62;101892.34;7285062;19;152123;-59
2022/05/14 03:06:15;;;;;;;;;;;;;;;21.07;50.85;101887.56;7288960;19;152740;-58
2022/05/14 03:08:42;;;;;;;;;;;;;;;21.06;50.73;101876.59;7283371;19;152290;-58
2022/05/14 03:11:09;;;;;;;;;;;;;;;21.07;50.78;101875.47;7283648;19;152927;-59
2022/05/14 03:13:36;;;;;;;;;;;;;;;21.06;51.07;101877.44;7283280;19;153543;-58
2022/05/14 03:16:03;;;;;;;;;;;;;;;21.07;51.15;101878.28;7285510;19;151787;-59
2022/05/14 03:18:31;;;;;;;;;;;;;;;21.06;51.35;101883.06;7284212;19;153522;-58
2022/05/14 03:20:58;;;;;;;;;;;;;;;21.06;51.13;101888.69;7282545;19;153951;-59
2022/05/14 03:23:26;;;;;;;;;;;;;;;21.06;51.46;101882.22;7285285;19;151769;-59
2022/05/14 03:25:52;;;;;;;;;;;;;;;21.04;51.49;101887.28;7280747;19;153658;-59
2022/05/14 03:28:19;;;;;;;;;;;;;;;21.03;51.65;101886.44;7291404;19;154119;-60
2022/05/14 03:30:46;;;;;;;;;;;;;;;21.02;51.73;101887.59;7285237;19;153285;-59
2022/05/14 03:33:13;;;;;;;;;;;;;;;21.02;51.83;101881.97;7282221;19;153449;-60
2022/05/14 03:35:40;;;;;;;;;;;;;;;21.02;51.86;101887.59;7285099;19;151780;-59
2022/05/14 03:38:06;;;;;;;;;;;;;;;20.99;52.34;101885.31;7284514;19;153738;-59
2022/05/14 03:40:34;;;;;;;;;;;;;;;21.00;52.28;101889.81;7283218;19;154154;-59
2022/05/14 03:43:00;;;;;;;;;;;;;;;21.00;52.18;101889.81;7282321;19;151937;-59
2022/05/14 03:45:27;;;;;;;;;;;;;;;20.97;52.08;101895.19;7281607;19;153103;-58
2022/05/14 03:47:54;;;;;;;;;;;;;;;20.97;52.48;101893.22;7282321;19;154407;-59
2022/05/14 03:50:21;;;;;;;;;;;;;;;20.98;52.30;101889.28;7292527;19;151737;-58
2022/05/14 03:52:47;;;;;;;;;;;;;;;20.97;52.29;101893.22;7282772;19;154551;-59
2022/05/14 03:55:14;;;;;;;;;;;;;;;20.97;52.41;101893.22;7283351;19;151862;-58
2022/05/14 03:57:41;;;;;;;;;;;;;;;20.97;52.50;101898.00;7280536;19;153524;-60
2022/05/14 04:00:11;;;;;;;;;;;;;;;20.97;52.20;101895.19;7281324;19;153878;-60
2022/05/14 04:02:38;;;;;;;;;;;;;;;20.94;52.38;101893.78;7283533;19;151523;-60
2022/05/14 04:05:05;;;;;;;;;;;;;;;20.94;52.13;101895.78;7283062;19;152797;-60
2022/05/14 04:07:32;;;;;;;;;;;;;;;20.94;51.87;101901.41;7288146;19;153688;-59
2022/05/14 04:09:59;;;;;;;;;;;;;;;20.93;51.80;101894.94;7287633;19;151698;-59
2022/05/14 04:12:30;;;;;;;;;;;;;;;20.92;52.11;101900.84;7296688;19;151944;-58
2022/05/14 04:14:56;;;;;;;;;;;;;;;20.91;52.27;101897.19;7290691;19;151731;-59
2022/05/14 04:17:23;;;;;;;;;;;;;;;20.91;52.10;101897.19;7290240;19;153712;-59
2022/05/14 04:19:50;;;;;;;;;;;;;;;20.94;52.21;101895.78;7287477;19;153869;-59
2022/05/14 04:22:17;;;;;;;;;;;;;;;20.91;51.78;101902.78;7290712;19;152241;-59
2022/05/14 04:24:43;;;;;;;;;;;;;;;20.89;52.38;101898.59;7288360;19;151721;-59
2022/05/14 04:27:10;;;;;;;;;;;;;;;20.88;52.08;101896.91;7288537;19;154091;-58
2022/05/14 04:29:36;;;;;;;;;;;;;;;20.88;52.10;101894.94;7288647;19;151780;-60
2022/05/14 04:32:03;;;;;;;;;;;;;;;20.87;52.00;101901.69;7287914;19;153553;-59
2022/05/14 04:34:30;;;;;;;;;;;;;;;20.86;51.89;101905.63;7296597;19;153580;-58
2022/05/14 04:36:57;;;;;;;;;;;;;;;20.84;51.68;101891.88;7287080;19;153461;-59
2022/05/14 04:39:31;;;;;;;;;;;;;;;20.84;51.99;101899.47;7288219;19;153213;-58
2022/05/14 04:42:00;;;;;;;;;;;;;;;20.83;52.03;101903.41;7287847;19;151716;-58
2022/05/14 04:44:28;;;;;;;;;;;;;;;20.83;52.02;101900.59;7290326;19;152605;-58
2022/05/14 04:46:55;;;;;;;;;;;;;;;20.81;51.99;101903.69;7284374;19;154116;-58
2022/05/14 04:49:22;;;;;;;;;;;;;;;20.80;52.08;101895.56;7289405;19;152026;-60
2022/05/14 04:51:48;;;;;;;;;;;;;;;20.81;52.11;101895.25;7290317;19;153195;-58
2022/05/14 04:54:15;;;;;;;;;;;;;;;20.81;52.27;101906.47;7288250;19;153340;-59
2022/05/14 04:56:42;;;;;;;;;;;;;;;20.79;52.08;101897.53;7294212;19;151731;-58
2022/05/14 04:59:09;;;;;;;;;;;;;;;20.80;52.26;101902.00;7289131;19;153499;-59
2022/05/14 05:01:36;;;;;;;;;;;;;;;20.78;52.13;101912.69;7290497;19;151462;-58
2022/05/14 05:04:02;;;;;;;;;;;;;;;20.80;51.96;101906.78;7289798;19;151726;-58
2022/05/14 05:06:28;;;;;;;;;;;;;;;20.80;52.23;101910.41;7285083;19;151909;-59
2022/05/14 05:08:55;;;;;;;;;;;;;;;20.80;51.54;101906.78;7287792;19;151582;-59
2022/05/14 05:11:22;;;;;;;;;;;;;;;20.80;51.49;101906.78;7288369;19;152732;-59
2022/05/14 05:13:49;;;;;;;;;;;;;;;20.79;51.51;101910.72;7286717;19;154423;-59
2022/05/14 05:16:16;;;;;;;;;;;;;;;20.76;51.96;101914.94;7296620;19;151457;-59
2022/05/14 05:18:43;;;;;;;;;;;;;;;20.75;52.08;101913.28;7284925;19;153728;-59
2022/05/14 05:21:10;;;;;;;;;;;;;;;20.76;51.58;101917.72;7286787;19;151890;-58
2022/05/14 05:23:36;;;;;;;;;;;;;;;20.74;52.16;101920.00;7286825;19;153578;-58
2022/05/14 05:26:03;;;;;;;;;;;;;;;20.73;51.90;101923.94;7285965;19;153025;-59
2022/05/14 05:28:30;;;;;;;;;;;;;;;20.74;51.71;101931.25;7287672;19;151779;-59
2022/05/14 05:30:56;;;;;;;;;;;;;;;20.75;52.09;101929.28;7287676;19;152633;-57
2022/05/14 05:33:24;;;;;;;;;;;;;;;20.73;51.72;101940.78;7284430;19;154129;-58
2022/05/14 05:35:51;;;;;;;;;;;;;;;20.72;51.84;101939.09;7287865;19;151737;-59
2022/05/14 05:38:18;;;;;;;;;;;;;;;20.71;52.01;101930.97;7292673;19;153623;-59
2022/05/14 05:40:44;;;;;;;;;;;;;;;20.71;51.75;101936.59;7285395;19;151990;-59
2022/05/14 05:43:11;;;;;;;;;;;;;;;20.69;51.97;101933.22;7286939;19;153402;-59
2022/05/14 05:45:39;;;;;;;;;;;;;;;20.70;51.65;101941.38;7284980;19;153396;-59
2022/05/14 05:48:07;;;;;;;;;;;;;;;20.69;50.79;101947.25;7287449;19;151961;-59
2022/05/14 05:50:34;;;;;;;;;;;;;;;20.42;48.71;101945.66;7287661;19;152767;-57
2022/05/14 05:53:00;;;;;;;;;;;;;;;20.50;49.21;101949.81;7285408;19;154031;-58
2022/05/14 05:58:04;;;;;;;;;;;;;;;20.53;50.66;101966.13;7285022;19;153310;-58
2022/05/14 06:00:31;;;;;;;;;;;;;;;20.59;50.52;101959.34;7293126;19;153754;-58
2022/05/14 06:02:59;;;;;;;;;;;;;;;20.57;50.53;101964.44;7288037;19;153418;-59
2022/05/14 06:05:27;;;;;;;;;;;;;;;20.63;50.25;101962.44;7284888;19;154443;-60
2022/05/14 06:07:54;;;;;;;;;;;;;;;20.59;50.90;101964.97;7285399;19;151602;-58
2022/05/14 06:10:22;;;;;;;;;;;;;;;20.59;50.50;101964.13;7284902;19;153169;-58
2022/05/14 06:12:50;;;;;;;;;;;;;;;20.55;50.68;101952.63;7285023;19;152386;-57
2022/05/14 06:15:18;;;;;;;;;;;;;;;20.56;50.57;101961.91;7286561;19;152176;-58
2022/05/14 06:17:49;;;;;;;;;;;;;;;20.54;51.14;101964.13;7286406;19;151891;-58
2022/05/14 06:20:17;;;;;;;;;;;;;;;20.53;51.05;101962.47;7283250;19;154118;-57
2022/05/14 06:22:44;;;;;;;;;;;;;;;20.52;50.78;101961.63;7293780;19;151869;-58
2022/05/14 06:25:11;;;;;;;;;;;;;;;20.50;51.41;101949.81;7283399;19;153395;-59
2022/05/14 06:27:39;;;;;;;;;;;;;;;20.50;51.27;101951.78;7285337;19;152672;-58
2022/05/14 06:30:06;;;;;;;;;;;;;;;20.50;51.40;101954.59;7283388;19;152633;-57
2022/05/14 06:32:33;;;;;;;;;;;;;;;20.51;51.32;101954.31;7285092;19;152130;-58
2022/05/14 06:35:00;;;;;;;;;;;;;;;20.50;51.34;101955.44;7285875;19;151976;-59
2022/05/14 06:37:27;;;;;;;;;;;;;;;20.51;51.65;101954.31;7283362;19;153444;-59
2022/05/14 06:39:53;;;;;;;;;;;;;;;20.49;51.26;101950.94;7286498;19;153956;-58
2022/05/14 06:42:20;;;;;;;;;;;;;;;20.51;51.24;101947.88;7283031;19;152665;-58
2022/05/14 06:44:48;;;;;;;;;;;;;;;20.51;51.52;101956.28;7293839;19;153411;-59
2022/05/14 06:47:14;;;;;;;;;;;;;;;20.50;51.36;101952.63;7282740;19;151856;-59
2022/05/14 06:49:41;;;;;;;;;;;;;;;20.53;51.24;101954.06;7287549;19;153589;-58
2022/05/14 06:52:10;;;;;;;;;;;;;;;20.50;51.32;101949.81;7285411;19;154042;-60
2022/05/14 06:54:38;;;;;;;;;;;;;;;20.49;51.71;101950.13;7285410;19;151891;-58
2022/05/14 06:57:05;;;;;;;;;;;;;;;20.48;51.83;101949.28;7282551;19;152700;-58
2022/05/14 06:59:33;;;;;;;;;;;;;;;20.50;51.22;101947.03;7284720;19;155547;-58
2022/05/14 07:02:00;;;;;;;;;;;;;;;20.50;51.86;101952.63;7285336;19;152192;-59
2022/05/14 07:07:05;;;;;;;;;;;;;;;20.51;51.81;101965.56;7288807;19;152099;-60
2022/05/14 07:09:33;;;;;;;;;;;;;;;20.50;51.74;101966.66;7286353;19;152972;-59
2022/05/14 07:12:03;;;;;;;;;;;;;;;20.51;52.01;101959.09;7283419;19;152252;-59
2022/05/14 07:14:30;;;;;;;;;;;;;;;20.51;51.94;101971.16;7285504;19;151504;-59
2022/05/14 07:16:57;;;;;;;;;;;;;;;20.51;51.58;101964.72;7284134;19;152567;-59
2022/05/14 07:19:25;;;;;;;;;;;;;;;20.51;51.81;101965.56;7281432;19;153290;-58
2022/05/14 07:21:53;;;;;;;;;;;;;;;20.51;51.72;101965.56;7286187;19;151806;-59
2022/05/14 07:24:21;;;;;;;;;;;;;;;20.51;51.81;101973.13;7284932;19;152707;-59
2022/05/14 07:26:50;;;;;;;;;;;;;;;20.49;51.56;101970.59;7290011;19;154069;-59
2022/05/14 07:29:19;;;;;;;;;;;;;;;20.49;51.56;101967.78;7280178;19;152134;-59
2022/05/14 07:31:46;;;;;;;;;;;;;;;20.50;52.04;101974.25;7284262;19;153231;-59
2022/05/14 07:34:13;;;;;;;;;;;;;;;20.50;51.71;101977.91;7282149;19;152001;-58
2022/05/14 07:36:44;;;;;;;;;;;;;;;20.49;51.69;101972.59;7282540;19;154441;-58
2022/05/14 07:39:10;;;;;;;;;;;;;;;20.48;51.74;101977.38;7279982;19;151823;-59
2022/05/14 07:41:41;;;;;;;;;;;;;;;20.49;51.90;101973.41;7283437;19;152442;-59
2022/05/14 07:44:09;;;;;;;;;;;;;;;20.49;51.90;101978.22;7281577;19;151519;-59
2022/05/14 07:46:37;;;;;;;;;;;;;;;20.47;52.00;101974.81;7282526;19;154129;-60
2022/05/14 07:49:08;;;;;;;;;;;;;;;20.47;52.22;101970.06;7290219;19;151812;-59
2022/05/14 07:51:35;;;;;;;;;;;;;;;20.49;52.38;101975.41;7283978;19;153332;-59
2022/05/14 07:54:02;;;;;;;;;;;;;;;20.48;52.15;101977.38;7283835;19;151640;-58
2022/05/14 07:56:29;;;;;;;;;;;;;;;20.49;52.43;101986.63;7283209;19;152928;-59
2022/05/14 07:58:56;;;;;;;;;;;;;;;20.49;52.28;101979.03;7281893;19;153695;-59
2022/05/14 08:01:23;;;;;;;;;;;;;;;20.52;52.61;101977.63;7284579;19;152107;-59
2022/05/14 08:03:49;;;;;;;;;;;;;;;20.52;52.62;101977.63;7284667;19;153498;-59
2022/05/14 08:06:17;;;;;;;;;;;;;;;20.51;52.47;101987.16;7281195;19;153763;-59
2022/05/14 08:08:44;;;;;;;;;;;;;;;20.50;52.93;101980.72;7282493;19;152047;-58
2022/05/14 08:11:11;;;;;;;;;;;;;;;20.51;52.83;101982.41;7288297;19;153493;-58
2022/05/14 08:13:38;;;;;;;;;;;;;;;20.51;53.01;101982.41;7283426;19;151522;-59
2022/05/14 08:16:05;;;;;;;;;;;;;;;20.52;52.64;101975.66;7281884;19;153724;-59
2022/05/14 08:18:33;;;;;;;;;;;;;;;20.58;51.77;101980.13;7280398;19;153152;-60
2022/05/14 08:24:29;;;;;;;;;;;;;;;20.53;51.92;101982.13;7284665;19;152066;-59
2022/05/14 08:26:22;;;;;;;;;;;;;;;20.36;49.53;101968.38;7280797;19;153739;-59
2022/05/14 08:28:49;;;;;;;;;;;;;;;20.37;49.45;101970.06;7282522;19;151791;-60
2022/05/14 08:31:16;;;;;;;;;;;;;;;20.36;49.60;101962.75;7282944;19;152809;-61
2022/05/14 08:33:43;;;;;;;;;;;;;;;20.39;49.14;101963.06;7288502;19;153303;-61
2022/05/14 08:36:10;;;;;;;;;;;;;;;20.44;48.97;101961.38;7283016;19;152800;-60
2022/05/14 08:38:37;;;;;;;;;;;;;;;20.45;49.34;101966.69;7281759;19;153296;-59
2022/05/14 08:41:04;;;;;;;;;;;;;;;20.49;49.67;101966.97;7281341;19;151702;-60
2022/05/14 08:43:32;;;;;;;;;;;;;;;20.54;49.63;101964.97;7282654;19;153589;-60
2022/05/14 08:45:59;;;;;;;;;;;;;;;20.58;49.35;101968.91;7280692;19;154074;-58
2022/05/14 08:48:29;;;;;;;;;;;;;;;20.64;49.05;101967.78;7278338;19;152227;-60
2022/05/14 08:51:01;;;;;;;;;;;;;;;20.72;49.40;101971.94;7279227;19;153016;-59
2022/05/14 08:53:28;;;;;;;;;;;;;;;20.78;49.17;101966.06;7285503;19;155353;-60
2022/05/14 08:56:07;;;;;;;;;;;;;;;20.84;48.95;101967.72;7294083;19;151713;-61
2022/05/14 08:58:34;;;;;;;;;;;;;;;20.91;48.81;101964.59;7288371;19;153671;-60
2022/05/14 09:01:03;;;;;;;;;;;;;;;20.99;48.43;101966.81;7288631;19;151991;-60
2022/05/14 09:03:29;;;;;;;;;;;;;;;21.05;48.23;101971.28;7286879;19;153512;-60
2022/05/14 09:05:57;;;;;;;;;;;;;;;21.13;48.08;101961.44;7286602;19;153194;-61
2022/05/14 09:08:24;;;;;;;;;;;;;;;21.19;47.98;101965.94;7288497;19;151967;-60
2022/05/14 09:10:59;;;;;;;;;;;;;;;21.24;47.93;101965.91;7287119;19;153461;-61
2022/05/14 09:13:27;;;;;;;;;;;;;;;21.31;47.94;101963.59;7286025;19;153993;-61
2022/05/14 09:15:57;;;;;;;;;;;;;;;21.37;47.37;101959.66;7293522;19;151977;-60
2022/05/14 09:18:27;;;;;;;;;;;;;;;21.43;47.58;101957.66;7287887;19;153327;-61
2022/05/14 09:21:00;;;;;;;;;;;;;;;21.48;47.61;101955.66;7285742;19;152288;-61
2022/05/14 09:23:37;;;;;;;;;;;;;;;21.53;47.46;101957.59;7289180;19;152802;-61
2022/05/14 09:26:14;;;;;;;;;;;;;;;21.58;47.31;101951.91;7287190;19;153457;-61
2022/05/14 09:28:46;;;;;;;;;;;;;;;21.62;46.97;101955.84;7285329;19;152062;-60
2022/05/14 09:31:25;;;;;;;;;;;;;;;21.66;46.91;101960.59;7288565;19;154140;-60
2022/05/14 09:34:02;;;;;;;;;;;;;;;21.69;46.74;101954.38;7285085;19;153673;-59
2022/05/14 09:36:45;;;;;;;;;;;;;;;21.74;46.88;101953.50;7286601;19;152784;-61
2022/05/14 09:39:15;;;;;;;;;;;;;;;21.77;46.42;101946.44;7293197;19;153102;-61
2022/05/14 09:41:42;;;;;;;;;;;;;;;21.79;46.26;101953.47;7285858;19;152019;-60
2022/05/14 09:44:19;;;;;;;;;;;;;;;21.81;46.60;101934.31;7288529;19;153445;-60
2022/05/14 09:46:47;;;;;;;;;;;;;;;21.87;46.19;101933.16;7284494;19;153439;-61
2022/05/14 09:49:19;;;;;;;;;;;;;;;21.86;45.91;101937.09;7288163;19;152537;-59
2022/05/14 09:51:46;;;;;;;;;;;;;;;21.87;45.63;101938.78;7287504;19;152706;-59
2022/05/14 09:54:18;;;;;;;;;;;;;;;21.93;45.39;101937.66;7284602;19;153364;-60
2022/05/14 09:56:46;;;;;;;;;;;;;;;21.96;45.44;101927.75;7283320;19;152527;-58
2022/05/14 09:59:16;;;;;;;;;;;;;;;22.00;45.64;101928.84;7285088;19;154162;-60
2022/05/14 10:01:48;;;;;;;;;;;;;;;22.03;45.19;101931.91;7283499;19;156825;-60
2022/05/14 10:04:26;;;;;;;;;;;;;;;22.06;45.17;101933.31;7278886;19;153713;-60
2022/05/14 10:06:57;;;;;;;;;;;;;;;22.10;45.21;101938.06;7283873;19;154961;-61
2022/05/14 10:09:31;;;;;;;;;;;;;;;22.13;45.21;101939.44;7282365;19;152017;-61
2022/05/14 10:12:03;;;;;;;;;;;;;;;22.16;45.55;101927.59;7286077;19;154134;-61
2022/05/14 10:14:32;;;;;;;;;;;;;;;22.17;45.51;101934.88;7284583;19;154376;-60
2022/05/14 10:17:08;;;;;;;;;;;;;;;22.26;45.34;101932.28;7284842;19;151753;-60
2022/05/14 10:19:53;;;;;;;;;;;;;;;22.34;45.91;101926.00;7283763;19;153320;-57
2022/05/14 10:22:26;;;;;;;;;;;;;;;22.30;45.45;101927.75;7282910;19;152387;-61
2022/05/14 10:27:53;;;;;;;;;;;;;;;22.29;45.46;101929.72;7282036;19;153433;-60
2022/05/14 10:30:24;;;;;;;;;;;;;;;22.29;45.13;101938.16;7282249;19;152072;-61
2022/05/14 10:32:59;;;;;;;;;;;;;;;22.29;44.68;101929.72;7284621;19;152625;-62
2022/05/14 10:35:29;;;;;;;;;;;;;;;22.28;44.84;101928.03;7282268;19;153481;-59
2022/05/14 10:38:01;;;;;;;;;;;;;;;22.36;45.11;101930.19;7284121;19;151753;-60
2022/05/14 10:40:31;;;;;;;;;;;;;;;22.53;44.50;101921.31;7282375;19;152812;-60
2022/05/14 10:43:07;;;;;;;;;;;;;;;22.49;44.72;101928.66;7280342;19;155259;-59
2022/05/14 10:45:41;;;;;;;;;;;;;;;22.45;44.83;101917.16;7282303;19;151953;-62
2022/05/14 10:48:24;;;;;;;;;;;;;;;22.46;44.66;101918.84;7287753;19;153719;-64
2022/05/14 10:50:51;;;;;;;;;;;;;;;22.42;44.43;101923.38;7285259;19;152180;-62
2022/05/14 10:53:18;;;;;;;;;;;;;;;22.43;44.53;101922.25;7282979;19;153393;-62
2022/05/14 10:55:49;;;;;;;;;;;;;;;22.43;44.53;101933.53;7283296;19;154182;-61
2022/05/14 10:58:35;;;;;;;;;;;;;;;22.44;44.20;101921.09;7280392;19;151854;-62
2022/05/14 11:01:05;;;;;;;;;;;;;;;22.44;44.53;101915.47;7282916;19;151939;-64
2022/05/14 11:03:36;;;;;;;;;;;;;;;22.46;44.45;101918.00;7278591;19;153180;-63
2022/05/14 11:06:03;;;;;;;;;;;;;;;22.44;44.31;101923.91;7283230;19;152338;-63
2022/05/14 11:08:32;;;;;;;;;;;;;;;22.43;44.27;101915.78;7284802;19;153061;-63
2022/05/14 11:11:09;;;;;;;;;;;;;;;22.45;44.16;101913.50;7290861;19;153946;-63
2022/05/14 11:16:06;;;;;;;;;;;;;;;22.48;44.15;101916.56;7280593;19;154073;-68
2022/05/14 11:18:43;;;;;;;;;;;;;;;22.47;44.43;101912.06;7284746;19;151759;-61
2022/05/14 11:21:10;;;;;;;;;;;;;;;22.46;44.08;101910.38;7285806;19;153347;-61
2022/05/14 11:23:49;;;;;;;;;;;;;;;22.46;43.95;101907.56;7285181;19;153280;-64
2022/05/14 11:26:17;;;;;;;;;;;;;;;22.47;44.10;101902.78;7284690;19;151892;-64
2022/05/14 11:28:53;;;;;;;;;;;;;;;22.46;43.87;101901.09;7282348;19;153111;-63
2022/05/14 11:31:24;;;;;;;;;;;;;;;22.47;43.96;101902.78;7289890;19;155363;-62
2022/05/14 11:33:53;;;;;;;;;;;;;;;22.47;44.35;101886.72;7285019;19;152643;-63
2022/05/14 11:36:22;;;;;;;;;;;;;;;22.47;44.20;101889.53;7280949;19;153999;-61
2022/05/14 11:39:05;;;;;;;;;;;;;;;22.44;44.48;101887.31;7282556;19;153484;-62
2022/05/14 11:41:35;;;;;;;;;;;;;;;22.46;44.48;101887.00;7285469;19;153013;-64
2022/05/14 11:44:06;;;;;;;;;;;;;;;22.45;44.25;101888.16;7282891;19;153652;-64
2022/05/14 11:46:42;;;;;;;;;;;;;;;22.48;43.87;101885.59;7283492;19;151967;-64
2022/05/14 11:49:17;;;;;;;;;;;;;;;22.46;44.31;101890.66;7280154;19;151879;-60
2022/05/14 11:51:56;;;;;;;;;;;;;;;22.46;44.11;101885.03;7282885;19;154088;-62
2022/05/14 11:54:23;;;;;;;;;;;;;;;22.46;44.11;101875.75;7291115;19;151795;-63
2022/05/14 11:56:53;;;;;;;;;;;;;;;22.44;43.95;101876.03;7280516;19;153309;-62
2022/05/14 11:59:27;;;;;;;;;;;;;;;22.44;43.97;101878.03;7283700;19;151469;-62
2022/05/14 12:01:59;;;;;;;;;;;;;;;22.47;43.89;101871.81;7283442;19;151806;-62
2022/05/14 12:04:29;;;;;;;;;;;;;;;22.45;44.37;101874.91;7279603;19;154315;-63
2022/05/14 12:07:05;;;;;;;;;;;;;;;22.44;44.24;101867.59;7282508;19;151723;-62
2022/05/14 12:09:48;;;;;;;;;;;;;;;22.43;44.39;101860.31;7280909;19;153722;-62
2022/05/14 12:12:20;;;;;;;;;;;;;;;22.43;44.35;101870.72;7281832;19;153953;-64
2022/05/14 12:14:47;;;;;;;;;;;;;;;22.44;44.01;101872.41;7284097;19;152192;-60
2022/05/14 12:17:16;;;;;;;;;;;;;;;22.42;43.91;101863.41;7289977;19;152810;-61
2022/05/14 12:19:44;;;;;;;;;;;;;;;22.42;44.23;101864.25;7284498;19;151818;-63
2022/05/14 12:22:15;;;;;;;;;;;;;;;22.43;43.88;101859.47;7284089;19;153366;-65
2022/05/14 12:24:52;;;;;;;;;;;;;;;22.42;43.82;101860.59;7279212;19;154609;-63
2022/05/14 12:27:19;;;;;;;;;;;;;;;22.41;44.32;101859.75;7284807;19;151902;-64
2022/05/14 12:29:56;;;;;;;;;;;;;;;22.41;44.38;101856.94;7287021;19;153287;-64
2022/05/14 12:35:00;;;;;;;;;;;;;;;22.39;43.79;101858.38;7288584;19;151838;-61
2022/05/14 12:37:40;;;;;;;;;;;;;;;22.39;43.93;101850.78;7288375;19;152581;-62
2022/05/14 12:40:08;;;;;;;;;;;;;;;22.39;43.99;101852.75;7295237;19;154203;-62
2022/05/14 12:42:38;;;;;;;;;;;;;;;22.38;44.13;101840.66;7289294;19;154276;-62
2022/05/14 12:45:06;;;;;;;;;;;;;;;22.38;43.68;101846.28;7287599;19;153182;-62
2022/05/14 12:47:34;;;;;;;;;;;;;;;22.37;43.84;101847.41;7286328;19;152212;-61
2022/05/14 12:50:01;;;;;;;;;;;;;;;22.35;43.71;101849.66;7286378;19;155119;-61
2022/05/14 12:52:32;;;;;;;;;;;;;;;22.35;43.57;101843.22;7288117;19;153331;-62
2022/05/14 12:55:01;;;;;;;;;;;;;;;22.34;43.80;101839.56;7288689;19;152141;-61
2022/05/14 12:57:29;;;;;;;;;;;;;;;22.34;43.56;101833.09;7287408;19;152424;-61